sensor_id;sensor_type;location;lat;lon;timestamp;temperature;humidity
75008;DHT22;63554;48.940;12.050;2022-10-23T00:02:37;9.50;91.80
75008;DHT22;63554;48.940;12.050;2022-10-23T00:07:40;9.50;92.40
75008;DHT22;63554;48.940;12.050;2022-10-23T00:12:45;9.50;92.70
75008;DHT22;63554;48.940;12.050;2022-10-23T00:17:48;9.50;92.70
75008;DHT22;63554;48.940;12.050;2022-10-23T00:22:51;9.50;92.90
75008;DHT22;63554;48.940;12.050;2022-10-23T00:27:55;9.60;93.00
75008;DHT22;63554;48.940;12.050;2022-10-23T00:32:58;9.60;92.90
75008;DHT22;63554;48.940;12.050;2022-10-23T00:38:01;9.70;93.00
75008;DHT22;63554;48.940;12.050;2022-10-23T00:43:12;9.70;93.00
75008;DHT22;63554;48.940;12.050;2022-10-23T00:48:18;9.60;93.50
75008;DHT22;63554;48.940;12.050;2022-10-23T00:53:22;9.60;93.60
75008;DHT22;63554;48.940;12.050;2022-10-23T00:58:27;9.70;93.60
75008;DHT22;63554;48.940;12.050;2022-10-23T01:03:30;9.70;93.60
75008;DHT22;63554;48.940;12.050;2022-10-23T01:08:37;9.70;93.90
75008;DHT22;63554;48.940;12.050;2022-10-23T01:13:51;9.70;94.10
75008;DHT22;63554;48.940;12.050;2022-10-23T01:19:00;9.80;93.90
75008;DHT22;63554;48.940;12.050;2022-10-23T01:24:11;9.80;93.80
75008;DHT22;63554;48.940;12.050;2022-10-23T01:29:21;9.80;93.90
75008;DHT22;63554;48.940;12.050;2022-10-23T01:34:29;9.80;94.10
75008;DHT22;63554;48.940;12.050;2022-10-23T01:39:37;9.80;94.20
75008;DHT22;63554;48.940;12.050;2022-10-23T01:44:45;9.80;94.30
75008;DHT22;63554;48.940;12.050;2022-10-23T01:49:50;9.80;94.40
75008;DHT22;63554;48.940;12.050;2022-10-23T01:54:57;9.80;94.70
75008;DHT22;63554;48.940;12.050;2022-10-23T02:00:06;9.80;94.60
75008;DHT22;63554;48.940;12.050;2022-10-23T02:05:13;9.80;94.90
75008;DHT22;63554;48.940;12.050;2022-10-23T02:10:18;9.60;95.00
75008;DHT22;63554;48.940;12.050;2022-10-23T02:15:28;9.50;95.20
75008;DHT22;63554;48.940;12.050;2022-10-23T02:20:36;9.50;95.40
75008;DHT22;63554;48.940;12.050;2022-10-23T02:25:45;9.50;95.50
75008;DHT22;63554;48.940;12.050;2022-10-23T02:30:51;9.40;95.60
75008;DHT22;63554;48.940;12.050;2022-10-23T02:35:55;9.50;95.50
75008;DHT22;63554;48.940;12.050;2022-10-23T02:41:07;9.60;95.30
75008;DHT22;63554;48.940;12.050;2022-10-23T02:46:20;9.60;95.10
75008;DHT22;63554;48.940;12.050;2022-10-23T02:51:32;9.50;95.00
75008;DHT22;63554;48.940;12.050;2022-10-23T02:56:39;9.40;94.90
75008;DHT22;63554;48.940;12.050;2022-10-23T03:01:49;9.50;95.10
75008;DHT22;63554;48.940;12.050;2022-10-23T03:06:54;9.40;94.90
75008;DHT22;63554;48.940;12.050;2022-10-23T03:11:57;9.40;94.80
75008;DHT22;63554;48.940;12.050;2022-10-23T03:17:02;9.40;95.00
75008;DHT22;63554;48.940;12.050;2022-10-23T03:22:05;9.40;94.80
75008;DHT22;63554;48.940;12.050;2022-10-23T03:27:08;9.50;94.90
75008;DHT22;63554;48.940;12.050;2022-10-23T03:32:13;9.40;94.80
75008;DHT22;63554;48.940;12.050;2022-10-23T03:37:16;9.20;95.10
75008;DHT22;63554;48.940;12.050;2022-10-23T03:42:19;9.20;95.50
75008;DHT22;63554;48.940;12.050;2022-10-23T03:47:23;9.10;95.50
75008;DHT22;63554;48.940;12.050;2022-10-23T03:52:26;9.10;95.60
75008;DHT22;63554;48.940;12.050;2022-10-23T03:57:29;9.00;95.70
75008;DHT22;63554;48.940;12.050;2022-10-23T04:02:34;8.90;95.80
75008;DHT22;63554;48.940;12.050;2022-10-23T04:07:37;8.90;96.00
75008;DHT22;63554;48.940;12.050;2022-10-23T04:12:40;9.00;96.00
75008;DHT22;63554;48.940;12.050;2022-10-23T04:17:44;9.00;95.90
75008;DHT22;63554;48.940;12.050;2022-10-23T04:22:47;9.00;95.80
75008;DHT22;63554;48.940;12.050;2022-10-23T04:27:50;9.20;95.80
75008;DHT22;63554;48.940;12.050;2022-10-23T04:32:55;9.20;95.30
75008;DHT22;63554;48.940;12.050;2022-10-23T04:37:58;9.20;94.80
75008;DHT22;63554;48.940;12.050;2022-10-23T04:43:01;9.00;94.70
75008;DHT22;63554;48.940;12.050;2022-10-23T04:48:05;9.00;94.80
75008;DHT22;63554;48.940;12.050;2022-10-23T04:53:08;8.80;94.80
75008;DHT22;63554;48.940;12.050;2022-10-23T04:58:11;8.80;95.20
75008;DHT22;63554;48.940;12.050;2022-10-23T05:03:16;8.90;95.10
75008;DHT22;63554;48.940;12.050;2022-10-23T05:08:19;8.90;94.60
75008;DHT22;63554;48.940;12.050;2022-10-23T05:13:22;8.90;94.00
75008;DHT22;63554;48.940;12.050;2022-10-23T05:18:29;8.80;93.40
75008;DHT22;63554;48.940;12.050;2022-10-23T05:23:35;8.90;93.20
75008;DHT22;63554;48.940;12.050;2022-10-23T05:28:39;8.80;93.00
75008;DHT22;63554;48.940;12.050;2022-10-23T05:33:44;8.70;93.00
75008;DHT22;63554;48.940;12.050;2022-10-23T05:38:47;8.60;93.40
75008;DHT22;63554;48.940;12.050;2022-10-23T05:43:50;8.70;93.20
75008;DHT22;63554;48.940;12.050;2022-10-23T05:48:54;8.50;93.80
75008;DHT22;63554;48.940;12.050;2022-10-23T05:53:57;8.60;94.20
75008;DHT22;63554;48.940;12.050;2022-10-23T05:59:00;8.70;94.00
75008;DHT22;63554;48.940;12.050;2022-10-23T06:04:04;9.10;94.60
75008;DHT22;63554;48.940;12.050;2022-10-23T06:09:07;9.20;94.40
75008;DHT22;63554;48.940;12.050;2022-10-23T06:14:10;9.00;94.60
75008;DHT22;63554;48.940;12.050;2022-10-23T06:19:14;9.10;94.90
75008;DHT22;63554;48.940;12.050;2022-10-23T06:24:17;9.00;95.40
75008;DHT22;63554;48.940;12.050;2022-10-23T06:29:20;9.20;95.70
75008;DHT22;63554;48.940;12.050;2022-10-23T06:34:25;9.20;95.90
75008;DHT22;63554;48.940;12.050;2022-10-23T06:39:28;9.10;95.90
75008;DHT22;63554;48.940;12.050;2022-10-23T06:44:33;9.00;96.00
75008;DHT22;63554;48.940;12.050;2022-10-23T06:49:37;9.00;96.20
75008;DHT22;63554;48.940;12.050;2022-10-23T06:54:40;9.00;96.30
75008;DHT22;63554;48.940;12.050;2022-10-23T06:59:43;9.00;96.40
75008;DHT22;63554;48.940;12.050;2022-10-23T07:04:47;9.20;96.40
75008;DHT22;63554;48.940;12.050;2022-10-23T07:09:50;9.20;96.40
75008;DHT22;63554;48.940;12.050;2022-10-23T07:14:53;9.10;96.10
75008;DHT22;63554;48.940;12.050;2022-10-23T07:19:58;9.10;96.00
75008;DHT22;63554;48.940;12.050;2022-10-23T07:25:00;9.20;96.00
75008;DHT22;63554;48.940;12.050;2022-10-23T07:30:04;9.20;95.90
75008;DHT22;63554;48.940;12.050;2022-10-23T07:35:10;9.20;95.90
75008;DHT22;63554;48.940;12.050;2022-10-23T07:40:13;9.30;95.80
75008;DHT22;63554;48.940;12.050;2022-10-23T07:45:17;9.40;95.40
75008;DHT22;63554;48.940;12.050;2022-10-23T07:50:22;9.40;95.10
75008;DHT22;63554;48.940;12.050;2022-10-23T07:55:25;9.20;95.20
75008;DHT22;63554;48.940;12.050;2022-10-23T08:00:28;9.20;95.30
75008;DHT22;63554;48.940;12.050;2022-10-23T08:05:32;9.20;95.40
75008;DHT22;63554;48.940;12.050;2022-10-23T08:10:35;9.30;95.30
75008;DHT22;63554;48.940;12.050;2022-10-23T08:15:38;9.20;95.30
75008;DHT22;63554;48.940;12.050;2022-10-23T08:20:44;9.30;95.40
75008;DHT22;63554;48.940;12.050;2022-10-23T08:25:47;9.40;95.40
75008;DHT22;63554;48.940;12.050;2022-10-23T08:30:50;9.40;95.40
75008;DHT22;63554;48.940;12.050;2022-10-23T08:35:54;9.50;95.50
75008;DHT22;63554;48.940;12.050;2022-10-23T08:40:58;9.70;95.30
75008;DHT22;63554;48.940;12.050;2022-10-23T08:46:05;9.90;95.00
75008;DHT22;63554;48.940;12.050;2022-10-23T08:51:17;10.00;95.00
75008;DHT22;63554;48.940;12.050;2022-10-23T08:56:24;9.90;94.90
75008;DHT22;63554;48.940;12.050;2022-10-23T09:01:35;10.10;94.60
75008;DHT22;63554;48.940;12.050;2022-10-23T09:06:44;10.20;94.50
75008;DHT22;63554;48.940;12.050;2022-10-23T09:11:56;10.20;94.30
75008;DHT22;63554;48.940;12.050;2022-10-23T09:17:09;10.40;94.10
75008;DHT22;63554;48.940;12.050;2022-10-23T09:22:17;10.40;94.30
75008;DHT22;63554;48.940;12.050;2022-10-23T09:27:20;10.50;94.10
75008;DHT22;63554;48.940;12.050;2022-10-23T09:32:34;10.60;93.80
75008;DHT22;63554;48.940;12.050;2022-10-23T09:37:44;10.70;93.30
75008;DHT22;63554;48.940;12.050;2022-10-23T09:42:51;10.90;93.10
75008;DHT22;63554;48.940;12.050;2022-10-23T09:48:12;10.90;92.50
75008;DHT22;63554;48.940;12.050;2022-10-23T09:53:29;11.00;91.70
75008;DHT22;63554;48.940;12.050;2022-10-23T09:58:36;11.30;90.80
75008;DHT22;63554;48.940;12.050;2022-10-23T10:03:48;11.50;90.20
75008;DHT22;63554;48.940;12.050;2022-10-23T10:08:56;11.50;89.90
75008;DHT22;63554;48.940;12.050;2022-10-23T10:14:24;11.90;89.10
75008;DHT22;63554;48.940;12.050;2022-10-23T10:19:38;12.10;88.30
75008;DHT22;63554;48.940;12.050;2022-10-23T10:24:50;12.50;87.00
75008;DHT22;63554;48.940;12.050;2022-10-23T10:30:03;12.70;86.00
75008;DHT22;63554;48.940;12.050;2022-10-23T10:35:18;12.90;84.00
75008;DHT22;63554;48.940;12.050;2022-10-23T10:40:27;12.80;84.60
75008;DHT22;63554;48.940;12.050;2022-10-23T10:45:33;12.80;84.50
75008;DHT22;63554;48.940;12.050;2022-10-23T10:50:43;12.90;86.10
75008;DHT22;63554;48.940;12.050;2022-10-23T10:55:51;13.10;85.50
75008;DHT22;63554;48.940;12.050;2022-10-23T11:00:58;13.30;84.40
75008;DHT22;63554;48.940;12.050;2022-10-23T11:06:04;13.50;84.00
75008;DHT22;63554;48.940;12.050;2022-10-23T11:11:12;13.50;83.90
75008;DHT22;63554;48.940;12.050;2022-10-23T11:16:21;13.60;84.20
75008;DHT22;63554;48.940;12.050;2022-10-23T11:21:29;13.50;84.40
75008;DHT22;63554;48.940;12.050;2022-10-23T11:26:45;13.50;84.30
75008;DHT22;63554;48.940;12.050;2022-10-23T11:32:05;13.50;83.80
75008;DHT22;63554;48.940;12.050;2022-10-23T11:37:15;14.10;81.20
75008;DHT22;63554;48.940;12.050;2022-10-23T11:42:30;14.10;80.50
75008;DHT22;63554;48.940;12.050;2022-10-23T11:47:37;14.50;79.80
75008;DHT22;63554;48.940;12.050;2022-10-23T11:52:53;14.90;78.50
75008;DHT22;63554;48.940;12.050;2022-10-23T11:58:27;15.00;78.90
75008;DHT22;63554;48.940;12.050;2022-10-23T12:03:45;15.20;77.80
75008;DHT22;63554;48.940;12.050;2022-10-23T12:08:53;15.50;76.30
75008;DHT22;63554;48.940;12.050;2022-10-23T12:13:59;15.50;76.40
75008;DHT22;63554;48.940;12.050;2022-10-23T12:19:16;15.80;75.20
75008;DHT22;63554;48.940;12.050;2022-10-23T12:24:38;16.60;73.30
75008;DHT22;63554;48.940;12.050;2022-10-23T12:29:57;16.70;72.30
75008;DHT22;63554;48.940;12.050;2022-10-23T12:35:14;16.40;74.10
75008;DHT22;63554;48.940;12.050;2022-10-23T12:40:20;16.00;75.50
75008;DHT22;63554;48.940;12.050;2022-10-23T12:45:36;16.20;75.10
75008;DHT22;63554;48.940;12.050;2022-10-23T12:50:47;16.00;76.10
75008;DHT22;63554;48.940;12.050;2022-10-23T12:55:56;15.90;76.60
75008;DHT22;63554;48.940;12.050;2022-10-23T13:01:06;15.80;77.20
75008;DHT22;63554;48.940;12.050;2022-10-23T13:06:10;16.00;76.40
75008;DHT22;63554;48.940;12.050;2022-10-23T13:11:15;15.80;77.20
75008;DHT22;63554;48.940;12.050;2022-10-23T13:16:22;15.80;77.00
75008;DHT22;63554;48.940;12.050;2022-10-23T13:21:27;16.00;76.30
75008;DHT22;63554;48.940;12.050;2022-10-23T13:26:32;16.20;76.70
75008;DHT22;63554;48.940;12.050;2022-10-23T13:31:37;16.40;76.00
75008;DHT22;63554;48.940;12.050;2022-10-23T13:36:50;16.20;76.20
75008;DHT22;63554;48.940;12.050;2022-10-23T13:41:54;16.10;77.40
75008;DHT22;63554;48.940;12.050;2022-10-23T13:47:00;15.90;77.40
75008;DHT22;63554;48.940;12.050;2022-10-23T13:52:03;15.80;79.00
75008;DHT22;63554;48.940;12.050;2022-10-23T13:57:12;15.80;79.30
75008;DHT22;63554;48.940;12.050;2022-10-23T14:02:19;16.00;78.30
75008;DHT22;63554;48.940;12.050;2022-10-23T14:07:22;16.00;78.30
75008;DHT22;63554;48.940;12.050;2022-10-23T14:12:25;16.00;79.00
75008;DHT22;63554;48.940;12.050;2022-10-23T14:17:30;15.90;79.30
75008;DHT22;63554;48.940;12.050;2022-10-23T14:22:33;15.80;80.60
75008;DHT22;63554;48.940;12.050;2022-10-23T14:27:36;15.80;80.40
75008;DHT22;63554;48.940;12.050;2022-10-23T14:32:41;15.60;81.10
75008;DHT22;63554;48.940;12.050;2022-10-23T14:37:45;15.60;81.60
75008;DHT22;63554;48.940;12.050;2022-10-23T14:42:48;15.60;81.80
75008;DHT22;63554;48.940;12.050;2022-10-23T14:47:53;15.70;82.00
75008;DHT22;63554;48.940;12.050;2022-10-23T14:52:56;15.70;81.60
75008;DHT22;63554;48.940;12.050;2022-10-23T14:57:59;15.60;82.40
75008;DHT22;63554;48.940;12.050;2022-10-23T15:03:03;15.50;82.90
75008;DHT22;63554;48.940;12.050;2022-10-23T15:08:06;15.30;83.50
75008;DHT22;63554;48.940;12.050;2022-10-23T15:13:09;15.40;83.30
75008;DHT22;63554;48.940;12.050;2022-10-23T15:18:14;15.30;83.50
75008;DHT22;63554;48.940;12.050;2022-10-23T15:23:20;15.30;83.70
75008;DHT22;63554;48.940;12.050;2022-10-23T15:28:23;15.10;84.00
75008;DHT22;63554;48.940;12.050;2022-10-23T15:33:28;15.10;83.70
75008;DHT22;63554;48.940;12.050;2022-10-23T15:38:31;15.00;83.90
75008;DHT22;63554;48.940;12.050;2022-10-23T15:43:34;15.00;84.00
75008;DHT22;63554;48.940;12.050;2022-10-23T15:48:38;15.00;83.90
75008;DHT22;63554;48.940;12.050;2022-10-23T15:53:41;14.80;84.00
75008;DHT22;63554;48.940;12.050;2022-10-23T15:58:44;14.80;84.40
75008;DHT22;63554;48.940;12.050;2022-10-23T16:03:49;14.70;84.50
75008;DHT22;63554;48.940;12.050;2022-10-23T16:08:52;14.30;85.50
75008;DHT22;63554;48.940;12.050;2022-10-23T16:14:00;14.20;85.30
75008;DHT22;63554;48.940;12.050;2022-10-23T16:19:05;14.10;85.40
75008;DHT22;63554;48.940;12.050;2022-10-23T16:24:08;14.10;85.10
75008;DHT22;63554;48.940;12.050;2022-10-23T16:29:12;14.10;84.70
75008;DHT22;63554;48.940;12.050;2022-10-23T16:34:16;14.10;84.60
75008;DHT22;63554;48.940;12.050;2022-10-23T16:39:20;14.00;84.70
75008;DHT22;63554;48.940;12.050;2022-10-23T16:44:23;14.00;84.20
75008;DHT22;63554;48.940;12.050;2022-10-23T16:49:28;13.90;84.60
75008;DHT22;63554;48.940;12.050;2022-10-23T16:54:32;13.90;84.20
75008;DHT22;63554;48.940;12.050;2022-10-23T16:59:36;13.90;84.00
75008;DHT22;63554;48.940;12.050;2022-10-23T17:04:40;14.00;83.30
75008;DHT22;63554;48.940;12.050;2022-10-23T17:09:44;14.00;83.00
75008;DHT22;63554;48.940;12.050;2022-10-23T17:14:47;14.10;82.00
75008;DHT22;63554;48.940;12.050;2022-10-23T17:19:51;13.90;82.70
75008;DHT22;63554;48.940;12.050;2022-10-23T17:24:54;14.00;82.50
75008;DHT22;63554;48.940;12.050;2022-10-23T17:29:57;14.10;82.10
75008;DHT22;63554;48.940;12.050;2022-10-23T17:35:03;13.90;82.60
75008;DHT22;63554;48.940;12.050;2022-10-23T17:40:07;13.90;82.70
75008;DHT22;63554;48.940;12.050;2022-10-23T17:45:10;13.70;82.80
75008;DHT22;63554;48.940;12.050;2022-10-23T17:50:14;13.50;83.10
75008;DHT22;63554;48.940;12.050;2022-10-23T17:55:18;13.50;82.40
75008;DHT22;63554;48.940;12.050;2022-10-23T18:00:21;13.50;81.80
75008;DHT22;63554;48.940;12.050;2022-10-23T18:05:25;13.60;81.30
75008;DHT22;63554;48.940;12.050;2022-10-23T18:10:28;13.70;81.10
75008;DHT22;63554;48.940;12.050;2022-10-23T18:15:33;13.60;81.20
75008;DHT22;63554;48.940;12.050;2022-10-23T18:20:40;13.30;82.30
75008;DHT22;63554;48.940;12.050;2022-10-23T18:25:43;13.30;82.00
75008;DHT22;63554;48.940;12.050;2022-10-23T18:30:47;13.40;81.10
75008;DHT22;63554;48.940;12.050;2022-10-23T18:35:58;13.50;80.40
75008;DHT22;63554;48.940;12.050;2022-10-23T18:41:01;13.50;80.60
75008;DHT22;63554;48.940;12.050;2022-10-23T18:46:04;13.30;81.00
75008;DHT22;63554;48.940;12.050;2022-10-23T18:51:14;13.30;81.40
75008;DHT22;63554;48.940;12.050;2022-10-23T18:56:19;13.30;82.00
75008;DHT22;63554;48.940;12.050;2022-10-23T19:01:25;13.20;81.70
75008;DHT22;63554;48.940;12.050;2022-10-23T19:06:30;13.10;81.10
75008;DHT22;63554;48.940;12.050;2022-10-23T19:11:34;13.30;79.20
75008;DHT22;63554;48.940;12.050;2022-10-23T19:16:39;13.50;78.70
75008;DHT22;63554;48.940;12.050;2022-10-23T19:21:46;13.50;78.40
75008;DHT22;63554;48.940;12.050;2022-10-23T19:26:50;13.40;77.80
75008;DHT22;63554;48.940;12.050;2022-10-23T19:31:53;13.40;77.70
75008;DHT22;63554;48.940;12.050;2022-10-23T19:36:58;13.40;77.50
75008;DHT22;63554;48.940;12.050;2022-10-23T19:42:01;13.30;77.70
75008;DHT22;63554;48.940;12.050;2022-10-23T19:47:04;13.30;78.50
75008;DHT22;63554;48.940;12.050;2022-10-23T19:52:09;13.10;80.00
75008;DHT22;63554;48.940;12.050;2022-10-23T19:57:12;13.10;80.50
75008;DHT22;63554;48.940;12.050;2022-10-23T20:02:17;13.00;81.10
75008;DHT22;63554;48.940;12.050;2022-10-23T20:07:21;13.00;81.30
75008;DHT22;63554;48.940;12.050;2022-10-23T20:12:24;12.80;82.10
75008;DHT22;63554;48.940;12.050;2022-10-23T20:17:27;12.80;81.70
75008;DHT22;63554;48.940;12.050;2022-10-23T20:22:32;12.90;81.60
75008;DHT22;63554;48.940;12.050;2022-10-23T20:27:35;13.00;81.30
75008;DHT22;63554;48.940;12.050;2022-10-23T20:32:43;12.90;81.90
75008;DHT22;63554;48.940;12.050;2022-10-23T20:37:48;12.90;81.50
75008;DHT22;63554;48.940;12.050;2022-10-23T20:42:51;13.00;81.30
75008;DHT22;63554;48.940;12.050;2022-10-23T20:47:54;13.00;81.90
75008;DHT22;63554;48.940;12.050;2022-10-23T20:52:58;12.90;82.30
75008;DHT22;63554;48.940;12.050;2022-10-23T20:58:01;12.80;82.60
75008;DHT22;63554;48.940;12.050;2022-10-23T21:03:04;12.80;82.70
75008;DHT22;63554;48.940;12.050;2022-10-23T21:08:08;12.80;83.20
75008;DHT22;63554;48.940;12.050;2022-10-23T21:13:11;12.70;83.20
75008;DHT22;63554;48.940;12.050;2022-10-23T21:18:14;12.80;83.10
75008;DHT22;63554;48.940;12.050;2022-10-23T21:23:40;12.80;83.30
75008;DHT22;63554;48.940;12.050;2022-10-23T21:28:43;12.60;83.70
75008;DHT22;63554;48.940;12.050;2022-10-23T21:34:07;12.70;83.90
75008;DHT22;63554;48.940;12.050;2022-10-23T21:39:16;12.80;83.30
75008;DHT22;63554;48.940;12.050;2022-10-23T21:44:19;12.80;83.20
75008;DHT22;63554;48.940;12.050;2022-10-23T21:49:22;12.80;82.80
75008;DHT22;63554;48.940;12.050;2022-10-23T21:54:26;12.70;83.00
75008;DHT22;63554;48.940;12.050;2022-10-23T21:59:29;12.70;83.80
75008;DHT22;63554;48.940;12.050;2022-10-23T22:04:36;12.70;84.10
75008;DHT22;63554;48.940;12.050;2022-10-23T22:09:41;12.70;84.30
75008;DHT22;63554;48.940;12.050;2022-10-23T22:14:44;12.70;84.70
75008;DHT22;63554;48.940;12.050;2022-10-23T22:19:47;12.50;85.40
75008;DHT22;63554;48.940;12.050;2022-10-23T22:24:51;12.50;86.50
75008;DHT22;63554;48.940;12.050;2022-10-23T22:29:54;12.50;86.20
75008;DHT22;63554;48.940;12.050;2022-10-23T22:34:59;12.50;86.10
75008;DHT22;63554;48.940;12.050;2022-10-23T22:40:04;12.50;86.30
75008;DHT22;63554;48.940;12.050;2022-10-23T22:45:08;12.20;87.30
75008;DHT22;63554;48.940;12.050;2022-10-23T22:50:11;12.50;86.50
75008;DHT22;63554;48.940;12.050;2022-10-23T22:55:16;12.40;87.20
75008;DHT22;63554;48.940;12.050;2022-10-23T23:00:19;12.50;86.50
75008;DHT22;63554;48.940;12.050;2022-10-23T23:05:22;12.50;87.30
75008;DHT22;63554;48.940;12.050;2022-10-23T23:10:26;12.50;87.50
75008;DHT22;63554;48.940;12.050;2022-10-23T23:15:29;12.40;87.90
75008;DHT22;63554;48.940;12.050;2022-10-23T23:20:33;12.50;88.10
75008;DHT22;63554;48.940;12.050;2022-10-23T23:25:40;12.50;88.70
75008;DHT22;63554;48.940;12.050;2022-10-23T23:30:44;12.30;89.10
75008;DHT22;63554;48.940;12.050;2022-10-23T23:35:51;12.30;89.40
75008;DHT22;63554;48.940;12.050;2022-10-23T23:40:56;12.10;90.40
75008;DHT22;63554;48.940;12.050;2022-10-23T23:45:59;12.20;90.50
75008;DHT22;63554;48.940;12.050;2022-10-23T23:51:02;12.10;91.10
75008;DHT22;63554;48.940;12.050;2022-10-23T23:56:06;12.10;90.90
